Time;durP1;ratioP1;P1;durP2;ratioP2;P2;SDS_P1;SDS_P2;PMS_P1;PMS_P2;Temp;Humidity;BMP_temperature;BMP_pressure;BME280_temperature;BME280_humidity;BME280_pressure;Samples;Min_cycle;Max_cycle;Signal;HPM_P1;HPM_P2
2020/12/16 00:01:52;;;;;;;0.60;0.60;;;6.30;99.90;;;;;;5053439;28;20186;-65
2020/12/16 00:04:18;;;;;;;2.40;0.75;;;6.10;99.90;;;;;;5053295;28;20197;-65
2020/12/16 00:06:44;;;;;;;1.10;1.00;;;6.00;99.90;;;;;;5053173;28;20543;-66
2020/12/16 00:09:10;;;;;;;1.27;1.17;;;6.10;99.90;;;;;;5053365;28;20174;-67
2020/12/16 00:11:36;;;;;;;0.80;0.70;;;6.10;99.90;;;;;;5053380;28;20197;-66
2020/12/16 00:14:02;;;;;;;1.10;1.10;;;6.20;99.90;;;;;;5053263;28;20163;-65
2020/12/16 00:16:27;;;;;;;1.90;0.90;;;6.30;99.90;;;;;;5053398;28;20636;-66
2020/12/16 00:18:53;;;;;;;0.70;0.63;;;6.50;99.90;;;;;;5053181;28;20680;-65
2020/12/16 00:21:23;;;;;;;0.80;0.80;;;6.50;99.90;;;;;;5053241;28;20190;-66
2020/12/16 00:23:49;;;;;;;0.57;0.57;;;6.60;99.90;;;;;;5053083;28;20417;-66
2020/12/16 00:26:15;;;;;;;0.80;0.80;;;6.50;99.90;;;;;;5052970;28;20640;-66
2020/12/16 00:28:42;;;;;;;4.22;1.38;;;6.60;99.90;;;;;;5053256;28;20178;-67
2020/12/16 00:31:08;;;;;;;1.35;1.00;;;6.70;99.90;;;;;;5053150;28;20284;-66
2020/12/16 00:33:34;;;;;;;2.42;1.02;;;6.80;99.90;;;;;;5053098;28;20570;-65
2020/12/16 00:36:00;;;;;;;2.20;1.83;;;6.80;99.90;;;;;;5052999;28;20316;-66
2020/12/16 00:38:26;;;;;;;1.13;0.80;;;6.80;99.90;;;;;;5053054;28;20647;-66
2020/12/16 00:40:52;;;;;;;1.20;1.10;;;6.80;99.90;;;;;;5053008;28;20182;-66
2020/12/16 00:43:17;;;;;;;0.73;0.73;;;6.90;99.90;;;;;;5053129;28;20640;-65
2020/12/16 00:45:43;;;;;;;0.70;0.70;;;6.90;99.50;;;;;;5052892;28;20246;-65
2020/12/16 00:48:09;;;;;;;1.00;0.83;;;6.90;99.40;;;;;;5052978;28;20175;-65
2020/12/16 00:50:34;;;;;;;1.43;1.10;;;6.90;99.40;;;;;;5053116;28;20186;-65
2020/12/16 00:53:00;;;;;;;0.77;0.77;;;6.80;99.50;;;;;;5053010;28;20182;-66
2020/12/16 00:55:26;;;;;;;0.60;0.50;;;6.70;99.80;;;;;;5052859;28;20181;-65
2020/12/16 00:57:53;;;;;;;1.57;0.90;;;6.80;99.90;;;;;;5052841;28;20202;-66
2020/12/16 01:00:19;;;;;;;0.60;0.60;;;6.80;99.90;;;;;;5052850;28;20215;-65
2020/12/16 01:02:46;;;;;;;1.30;0.70;;;6.70;99.70;;;;;;5052882;28;20625;-66
2020/12/16 01:05:14;;;;;;;0.60;0.60;;;6.50;99.90;;;;;;5052874;28;20529;-66
2020/12/16 01:07:40;;;;;;;0.52;0.52;;;6.50;99.90;;;;;;5052744;28;20174;-65
2020/12/16 01:10:10;;;;;;;0.87;0.87;;;6.60;99.90;;;;;;5052813;28;20204;-65
2020/12/16 01:12:40;;;;;;;1.45;1.00;;;6.70;99.90;;;;;;5055134;28;20198;-66
2020/12/16 01:15:09;;;;;;;1.67;0.82;;;6.70;99.90;;;;;;5056406;28;20178;-66
2020/12/16 01:17:41;;;;;;;1.98;0.80;;;6.60;99.90;;;;;;5056366;28;20293;-65
2020/12/16 01:20:08;;;;;;;1.15;1.05;;;6.50;99.70;;;;;;5056321;28;20174;-66
2020/12/16 01:22:41;;;;;;;0.50;0.50;;;6.00;99.90;;;;;;5056028;28;20190;-65
2020/12/16 01:25:07;;;;;;;0.85;0.80;;;6.00;99.90;;;;;;5056269;28;20581;-66
2020/12/16 01:27:33;;;;;;;1.05;1.05;;;6.10;99.90;;;;;;5056352;28;20175;-66
2020/12/16 01:30:00;;;;;;;0.95;0.95;;;6.00;99.90;;;;;;5056294;28;20541;-65
2020/12/16 01:32:26;;;;;;;1.75;0.73;;;6.00;99.90;;;;;;5056025;28;20221;-65
2020/12/16 01:34:53;;;;;;;0.80;0.80;;;5.90;99.90;;;;;;5055915;28;20603;-66
2020/12/16 01:37:18;;;;;;;1.20;0.95;;;6.00;99.90;;;;;;5056161;28;20856;-66
2020/12/16 01:39:44;;;;;;;0.73;0.70;;;6.20;99.90;;;;;;5056151;28;20170;-66
2020/12/16 01:42:12;;;;;;;1.40;1.30;;;6.40;99.90;;;;;;5056082;28;20190;-66
2020/12/16 01:44:37;;;;;;;0.93;0.80;;;6.60;99.90;;;;;;5055900;28;20212;-66
2020/12/16 01:47:03;;;;;;;0.93;0.93;;;6.60;99.90;;;;;;5055918;28;20182;-66
2020/12/16 01:49:29;;;;;;;0.60;0.60;;;6.60;99.90;;;;;;5055845;28;20239;-66
2020/12/16 01:52:02;;;;;;;0.70;0.70;;;6.50;99.70;;;;;;5055661;28;20198;-65
2020/12/16 01:54:29;;;;;;;0.70;0.70;;;6.40;99.90;;;;;;5055942;28;20174;-65
2020/12/16 01:56:57;;;;;;;0.95;0.85;;;6.50;99.90;;;;;;5055523;28;20543;-66
2020/12/16 01:59:23;;;;;;;0.77;0.77;;;6.50;99.90;;;;;;5055602;28;20169;-65
2020/12/16 02:01:54;;;;;;;1.27;1.15;;;6.60;99.90;;;;;;5055464;28;20194;-66
2020/12/16 02:04:24;;;;;;;0.80;0.80;;;6.70;99.90;;;;;;5055594;28;20170;-66
2020/12/16 02:06:57;;;;;;;0.93;0.93;;;6.80;99.80;;;;;;5055418;28;20538;-66
2020/12/16 02:09:24;;;;;;;1.05;1.05;;;6.70;99.40;;;;;;5055573;28;20174;-65
2020/12/16 02:11:50;;;;;;;3.35;0.93;;;6.60;99.40;;;;;;5055294;28;20239;-65
2020/12/16 02:14:15;;;;;;;1.42;0.70;;;6.60;99.70;;;;;;5055269;28;20166;-66
2020/12/16 02:16:42;;;;;;;0.80;0.80;;;6.60;99.90;;;;;;5055083;28;20170;-66
2020/12/16 02:19:09;;;;;;;1.20;1.00;;;6.60;99.90;;;;;;5055358;28;20202;-66
2020/12/16 02:21:36;;;;;;;1.17;0.70;;;6.60;99.90;;;;;;5055078;28;20201;-65
2020/12/16 02:24:12;;;;;;;1.60;0.70;;;6.60;99.90;;;;;;5053766;28;20178;-65
2020/12/16 02:26:40;;;;;;;0.65;0.65;;;6.40;99.90;;;;;;5055076;28;20643;-65
2020/12/16 02:29:08;;;;;;;0.80;0.80;;;6.50;99.90;;;;;;5055263;28;20659;-66
2020/12/16 02:31:36;;;;;;;0.82;0.70;;;6.60;99.90;;;;;;5054785;28;20198;-66
2020/12/16 02:34:03;;;;;;;0.70;0.70;;;6.70;99.90;;;;;;5055182;28;20587;-65
2020/12/16 02:36:28;;;;;;;2.28;0.73;;;6.80;99.80;;;;;;5054701;28;20182;-67
2020/12/16 02:38:55;;;;;;;1.30;0.90;;;6.70;99.90;;;;;;5054724;28;20567;-66
2020/12/16 02:41:21;;;;;;;1.42;0.65;;;6.60;99.90;;;;;;5055110;28;20468;-65
2020/12/16 02:43:47;;;;;;;0.98;0.88;;;6.60;99.90;;;;;;5054999;28;20178;-66
2020/12/16 02:46:13;;;;;;;0.80;0.80;;;6.60;99.90;;;;;;5054650;28;20170;-66
2020/12/16 02:48:39;;;;;;;0.73;0.60;;;6.60;99.90;;;;;;5054873;28;20231;-66
2020/12/16 02:51:04;;;;;;;0.70;0.70;;;6.70;99.90;;;;;;5054646;28;20194;-66
2020/12/16 02:53:30;;;;;;;2.10;0.83;;;6.70;99.90;;;;;;5054577;28;20411;-66
2020/12/16 02:55:56;;;;;;;0.80;0.80;;;6.70;99.90;;;;;;5054392;28;20524;-66
2020/12/16 02:58:23;;;;;;;0.90;0.90;;;6.70;99.90;;;;;;5054423;28;20303;-65
2020/12/16 03:00:49;;;;;;;0.75;0.73;;;6.70;99.90;;;;;;5054438;28;20186;-65
2020/12/16 03:03:15;;;;;;;2.78;1.30;;;6.70;99.90;;;;;;5054233;28;20518;-65
2020/12/16 03:05:41;;;;;;;1.10;1.00;;;6.40;99.90;;;;;;5054222;28;20177;-66
2020/12/16 03:08:09;;;;;;;0.80;0.80;;;6.40;99.90;;;;;;5054144;28;20201;-66
2020/12/16 03:10:35;;;;;;;2.30;1.00;;;6.50;99.90;;;;;;5054261;28;20269;-66
2020/12/16 03:13:01;;;;;;;0.80;0.80;;;6.60;99.90;;;;;;5054420;28;20181;-66
2020/12/16 03:15:26;;;;;;;0.87;0.80;;;6.50;99.90;;;;;;5054036;28;20586;-66
2020/12/16 03:17:52;;;;;;;1.03;0.93;;;6.30;99.90;;;;;;5052955;28;20467;-65
2020/12/16 03:20:18;;;;;;;0.97;0.70;;;6.30;99.90;;;;;;5054017;28;20204;-66
2020/12/16 03:22:43;;;;;;;2.27;1.53;;;6.20;99.90;;;;;;5053908;28;20307;-66
2020/12/16 03:25:09;;;;;;;1.37;0.70;;;6.20;99.90;;;;;;5053923;28;20378;-66
2020/12/16 03:27:34;;;;;;;2.30;1.00;;;6.10;99.90;;;;;;5054286;28;20672;-66
2020/12/16 03:30:00;;;;;;;1.20;0.80;;;6.20;99.90;;;;;;5054048;28;20228;-66
2020/12/16 03:32:26;;;;;;;2.60;1.20;;;6.10;99.90;;;;;;5053763;28;20316;-65
2020/12/16 03:34:51;;;;;;;1.07;0.87;;;6.20;99.90;;;;;;5053379;28;20194;-66
2020/12/16 03:37:17;;;;;;;2.67;1.40;;;6.20;99.90;;;;;;5053906;28;20208;-65
2020/12/16 03:39:42;;;;;;;0.57;0.50;;;6.30;99.90;;;;;;5053930;28;20170;-66
2020/12/16 03:42:08;;;;;;;1.10;1.10;;;6.30;99.90;;;;;;5053631;28;20186;-65
2020/12/16 03:44:34;;;;;;;0.97;0.57;;;6.40;99.90;;;;;;5053668;28;20177;-66
2020/12/16 03:46:59;;;;;;;1.23;0.87;;;6.40;99.90;;;;;;5053597;28;20170;-66
2020/12/16 03:49:25;;;;;;;0.73;0.73;;;6.40;99.90;;;;;;5053486;28;20463;-66
2020/12/16 03:51:52;;;;;;;1.27;1.17;;;6.50;99.90;;;;;;5053456;28;20580;-65
2020/12/16 03:54:18;;;;;;;0.95;0.95;;;6.60;99.90;;;;;;5053829;28;20625;-65
2020/12/16 03:56:44;;;;;;;1.33;1.03;;;6.50;99.90;;;;;;5053324;28;20189;-65
2020/12/16 03:59:09;;;;;;;1.43;1.33;;;6.50;99.90;;;;;;5053481;28;20202;-65
2020/12/16 04:01:35;;;;;;;2.07;1.40;;;6.50;99.90;;;;;;5053669;28;20198;-65
2020/12/16 04:04:03;;;;;;;1.43;0.83;;;6.40;99.90;;;;;;5053342;28;20543;-65
2020/12/16 04:06:29;;;;;;;1.27;1.17;;;6.40;99.90;;;;;;5053206;28;20166;-66
2020/12/16 04:08:55;;;;;;;0.67;0.67;;;6.30;99.90;;;;;;5053374;28;20535;-66
2020/12/16 04:11:20;;;;;;;0.93;0.63;;;6.30;99.90;;;;;;5053411;28;20205;-66
2020/12/16 04:13:46;;;;;;;0.80;0.77;;;6.50;99.90;;;;;;5053296;28;20170;-66
2020/12/16 04:16:17;;;;;;;0.90;0.90;;;6.50;99.90;;;;;;5053011;28;20400;-66
2020/12/16 04:18:43;;;;;;;1.75;1.33;;;6.50;99.90;;;;;;5053386;28;20197;-66
2020/12/16 04:21:09;;;;;;;0.90;0.90;;;6.40;99.90;;;;;;5053138;28;20197;-66
2020/12/16 04:23:36;;;;;;;0.70;0.70;;;6.10;99.90;;;;;;5052977;28;20196;-66
2020/12/16 04:26:02;;;;;;;1.35;1.25;;;6.30;99.90;;;;;;5053162;28;20170;-66
2020/12/16 04:28:28;;;;;;;0.98;0.98;;;6.40;99.90;;;;;;5053208;28;20188;-67
2020/12/16 04:30:54;;;;;;;3.23;1.07;;;6.40;99.90;;;;;;5053253;28;20694;-66
2020/12/16 04:33:20;;;;;;;1.23;0.95;;;6.50;99.90;;;;;;5053022;28;20405;-66
2020/12/16 04:35:46;;;;;;;0.63;0.63;;;6.60;99.90;;;;;;5053111;28;20174;-66
2020/12/16 04:38:12;;;;;;;1.13;1.03;;;6.70;99.90;;;;;;5053084;28;20197;-65
2020/12/16 04:40:39;;;;;;;0.90;0.90;;;6.80;99.90;;;;;;5053109;28;20440;-66
2020/12/16 04:43:16;;;;;;;0.60;0.60;;;6.80;99.90;;;;;;5053149;28;20170;-65
2020/12/16 04:45:42;;;;;;;1.05;0.95;;;7.00;99.90;;;;;;5052661;28;20178;-66
2020/12/16 04:48:12;;;;;;;2.80;0.80;;;7.00;99.90;;;;;;5056376;28;20182;-67
2020/12/16 04:50:39;;;;;;;0.77;0.77;;;7.00;99.80;;;;;;5056831;28;20424;-66
2020/12/16 04:53:08;;;;;;;0.93;0.73;;;7.00;99.60;;;;;;5056857;28;20174;-66
2020/12/16 04:55:34;;;;;;;1.08;1.08;;;7.10;99.50;;;;;;5056698;28;20170;-66
2020/12/16 04:58:01;;;;;;;1.75;1.10;;;7.10;99.50;;;;;;5055646;28;20749;-67
2020/12/16 05:00:28;;;;;;;1.30;1.20;;;7.10;99.50;;;;;;5056677;28;20188;-66
2020/12/16 05:03:00;;;;;;;1.38;1.27;;;7.00;99.80;;;;;;5056725;28;20218;-66
2020/12/16 05:05:27;;;;;;;1.40;1.30;;;7.00;99.90;;;;;;5056630;28;20173;-65
2020/12/16 05:07:53;;;;;;;3.05;1.10;;;7.00;99.80;;;;;;5056707;28;20209;-66
2020/12/16 05:10:33;;;;;;;1.73;1.63;;;7.00;99.60;;;;;;5056384;28;20622;-66
2020/12/16 05:13:06;;;;;;;1.45;1.38;;;6.90;99.70;;;;;;5056235;28;20549;-66
2020/12/16 05:15:32;;;;;;;1.50;1.33;;;6.70;99.90;;;;;;5056295;28;20163;-67
2020/12/16 05:18:07;;;;;;;1.10;1.00;;;6.80;99.90;;;;;;5056243;28;20264;-65
2020/12/16 05:20:33;;;;;;;4.38;1.27;;;6.70;99.90;;;;;;5056128;28;20166;-65
2020/12/16 05:23:00;;;;;;;1.10;1.00;;;6.80;99.90;;;;;;5056162;28;20197;-66
2020/12/16 05:25:26;;;;;;;3.05;0.93;;;6.90;99.90;;;;;;5056222;28;20736;-66
2020/12/16 05:27:52;;;;;;;0.80;0.80;;;7.00;99.60;;;;;;5056174;28;20181;-66
2020/12/16 05:30:18;;;;;;;0.70;0.70;;;7.00;99.40;;;;;;5056107;28;20436;-66
2020/12/16 05:32:43;;;;;;;1.23;1.13;;;6.90;99.30;;;;;;5056090;28;20678;-65
2020/12/16 05:35:23;;;;;;;1.27;1.00;;;6.90;99.40;;;;;;5055989;28;20216;-65
2020/12/16 05:37:48;;;;;;;2.83;1.20;;;6.90;99.10;;;;;;5056227;28;20190;-66
2020/12/16 05:40:20;;;;;;;1.20;1.10;;;6.70;99.30;;;;;;5056058;28;20185;-65
2020/12/16 05:42:48;;;;;;;1.70;1.60;;;6.80;99.60;;;;;;5055937;28;20170;-66
2020/12/16 05:45:22;;;;;;;1.42;1.33;;;6.70;99.70;;;;;;5055777;28;20194;-66
2020/12/16 05:48:08;;;;;;;0.80;0.80;;;6.50;99.90;;;;;;5056064;28;20180;-65
2020/12/16 05:50:45;;;;;;;0.80;0.80;;;6.40;99.90;;;;;;5055932;28;20198;-66
2020/12/16 05:53:13;;;;;;;1.00;1.00;;;6.60;99.90;;;;;;5055775;28;20192;-66
2020/12/16 05:55:39;;;;;;;0.93;0.73;;;6.80;99.90;;;;;;5055513;28;20185;-66
2020/12/16 05:58:07;;;;;;;1.27;1.17;;;6.80;99.90;;;;;;5055576;28;20198;-66
2020/12/16 06:00:56;;;;;;;1.67;1.58;;;6.90;99.90;;;;;;5055552;28;20491;-67
2020/12/16 06:03:30;;;;;;;0.77;0.77;;;7.00;99.80;;;;;;5055820;28;20636;-65
2020/12/16 06:06:00;;;;;;;3.15;1.35;;;7.00;99.50;;;;;;5055282;28;20231;-66
2020/12/16 06:08:30;;;;;;;1.67;1.40;;;6.90;99.50;;;;;;5054193;28;20663;-66
2020/12/16 06:10:55;;;;;;;2.15;1.10;;;6.80;99.40;;;;;;5055529;28;20529;-66
2020/12/16 06:13:22;;;;;;;1.17;1.07;;;6.70;99.90;;;;;;5055272;28;20185;-66
2020/12/16 06:15:52;;;;;;;2.03;1.00;;;6.50;99.90;;;;;;5055093;28;20392;-66
2020/12/16 06:18:19;;;;;;;1.02;1.02;;;6.60;99.90;;;;;;5055189;28;20193;-66
2020/12/16 06:20:45;;;;;;;4.97;3.13;;;6.80;99.90;;;;;;5055230;28;20190;-66
2020/12/16 06:23:23;;;;;;;5.05;4.40;;;6.80;99.90;;;;;;5055059;28;20549;-67
2020/12/16 06:25:51;;;;;;;4.32;2.72;;;6.70;99.60;;;;;;5054989;28;20545;-65
2020/12/16 06:28:17;;;;;;;2.85;2.13;;;6.70;99.60;;;;;;5055223;28;20231;-65
2020/12/16 06:31:09;;;;;;;7.05;2.53;;;6.50;99.90;;;;;;5055171;28;20260;-65
2020/12/16 06:33:56;;;;;;;1.70;1.60;;;6.20;99.90;;;;;;5054638;28;20182;-66
2020/12/16 06:36:37;;;;;;;1.85;1.30;;;6.10;99.90;;;;;;5053475;28;20671;-66
2020/12/16 06:39:23;;;;;;;0.70;0.70;;;5.90;99.90;;;;;;5054992;28;20210;-66
2020/12/16 06:41:58;;;;;;;1.38;1.27;;;5.80;99.90;;;;;;5054763;28;20178;-67
2020/12/16 06:44:27;;;;;;;0.93;0.80;;;5.90;99.90;;;;;;5054679;28;20162;-66
2020/12/16 06:46:54;;;;;;;1.50;1.40;;;5.90;99.90;;;;;;5054563;28;20529;-66
2020/12/16 06:49:23;;;;;;;4.75;0.90;;;5.90;99.90;;;;;;5054691;28;20186;-65
2020/12/16 06:51:50;;;;;;;3.03;2.67;;;5.90;99.90;;;;;;5054502;28;20190;-65
2020/12/16 06:54:18;;;;;;;2.35;1.77;;;5.80;99.90;;;;;;5054609;28;20512;-66
2020/12/16 06:56:46;;;;;;;1.70;1.58;;;5.80;99.90;;;;;;5054507;28;20541;-65
2020/12/16 06:59:14;;;;;;;1.80;1.25;;;6.00;99.90;;;;;;5054775;28;20296;-66
2020/12/16 07:01:39;;;;;;;1.50;1.40;;;6.10;99.90;;;;;;5054488;28;20186;-65
2020/12/16 07:04:11;;;;;;;1.77;1.53;;;6.20;99.90;;;;;;5054387;28;20170;-66
2020/12/16 07:06:41;;;;;;;1.80;1.15;;;6.10;99.90;;;;;;5054219;28;20265;-66
2020/12/16 07:09:16;;;;;;;1.42;1.33;;;6.20;99.90;;;;;;5053739;28;20224;-66
2020/12/16 07:11:43;;;;;;;4.95;3.40;;;6.40;99.90;;;;;;5054126;28;20190;-65
2020/12/16 07:14:14;;;;;;;5.45;2.70;;;6.50;99.90;;;;;;5054176;28;20228;-66
2020/12/16 07:16:40;;;;;;;5.32;2.58;;;6.50;99.90;;;;;;5054071;28;20176;-66
2020/12/16 07:19:06;;;;;;;3.85;2.67;;;6.50;99.90;;;;;;5054129;28;20205;-66
2020/12/16 07:21:33;;;;;;;1.70;1.50;;;6.60;99.90;;;;;;5054193;28;20186;-65
2020/12/16 07:24:14;;;;;;;1.10;1.10;;;6.50;99.90;;;;;;5053932;28;20530;-65
2020/12/16 07:26:50;;;;;;;1.63;1.27;;;6.60;99.90;;;;;;5053900;28;20171;-66
2020/12/16 07:29:40;;;;;;;2.25;2.00;;;6.70;99.90;;;;;;5053944;28;20166;-67
2020/12/16 07:32:11;;;;;;;2.20;1.70;;;6.60;99.90;;;;;;5052802;28;20789;-65
2020/12/16 07:34:50;;;;;;;2.38;2.17;;;6.50;99.90;;;;;;5053962;28;20411;-65
2020/12/16 07:37:18;;;;;;;2.10;1.90;;;6.40;99.90;;;;;;5053732;28;20249;-65
2020/12/16 07:39:52;;;;;;;1.50;1.40;;;6.30;99.90;;;;;;5053759;28;20567;-65
2020/12/16 07:42:23;;;;;;;2.38;2.17;;;6.40;99.90;;;;;;5053696;28;20198;-65
2020/12/16 07:44:48;;;;;;;21.17;15.93;;;6.60;99.90;;;;;;5053364;28;20180;-65
2020/12/16 07:47:18;;;;;;;6.27;5.60;;;6.70;99.90;;;;;;5053616;28;20171;-66
2020/12/16 07:49:44;;;;;;;4.50;4.07;;;6.80;99.90;;;;;;5053816;28;20573;-65
2020/12/16 07:52:10;;;;;;;3.38;2.95;;;6.80;99.90;;;;;;5053498;28;20217;-65
2020/12/16 07:54:36;;;;;;;1.63;1.53;;;6.70;99.90;;;;;;5053619;28;20171;-65
2020/12/16 07:57:02;;;;;;;7.07;5.00;;;6.80;99.90;;;;;;5053302;28;20412;-65
2020/12/16 07:59:36;;;;;;;3.45;2.45;;;6.90;99.90;;;;;;5053648;28;20178;-65
2020/12/16 08:02:13;;;;;;;5.50;2.58;;;6.80;99.90;;;;;;5053325;28;20194;-65
2020/12/16 08:04:41;;;;;;;1.67;1.10;;;6.60;99.90;;;;;;5053165;28;20201;-66
2020/12/16 08:07:20;;;;;;;0.90;0.90;;;6.60;99.90;;;;;;5053641;28;20255;-67
2020/12/16 08:09:56;;;;;;;2.10;1.95;;;6.80;99.90;;;;;;5053533;28;20177;-65
2020/12/16 08:12:23;;;;;;;3.70;3.40;;;6.80;99.90;;;;;;5053343;28;20232;-66
2020/12/16 08:14:49;;;;;;;11.75;6.50;;;6.80;99.90;;;;;;5053189;28;20205;-65
2020/12/16 08:17:14;;;;;;;32.33;19.97;;;6.90;99.90;;;;;;5053453;28;20194;-65
2020/12/16 08:19:40;;;;;;;103.67;57.17;;;7.00;99.90;;;;;;5053230;28;20401;-66
2020/12/16 08:22:13;;;;;;;14.13;11.67;;;7.10;99.90;;;;;;5056710;28;20193;-66
2020/12/16 08:24:39;;;;;;;32.63;21.23;;;7.20;99.90;;;;;;5057007;28;20186;-66
2020/12/16 08:27:05;;;;;;;3.70;3.10;;;7.40;99.90;;;;;;5057384;28;20166;-65
2020/12/16 08:29:33;;;;;;;7.00;4.70;;;7.40;99.70;;;;;;5057142;28;20486;-65
2020/12/16 08:31:59;;;;;;;8.68;6.70;;;7.20;99.60;;;;;;5057267;28;20422;-65
2020/12/16 08:34:26;;;;;;;5.53;3.90;;;7.00;99.70;;;;;;5057528;28;20177;-65
2020/12/16 08:36:54;;;;;;;11.20;8.35;;;6.90;99.90;;;;;;5056884;28;20404;-65
2020/12/16 08:39:24;;;;;;;3.92;3.60;;;7.10;99.90;;;;;;5057293;28;20202;-65
2020/12/16 08:41:54;;;;;;;29.60;21.02;;;6.90;99.90;;;;;;5056914;28;20205;-65
2020/12/16 08:44:23;;;;;;;8.25;6.88;;;6.90;99.90;;;;;;5057199;28;20170;-66
2020/12/16 08:46:50;;;;;;;6.38;4.22;;;6.90;99.90;;;;;;5056969;28;20224;-66
2020/12/16 08:49:22;;;;;;;6.38;4.00;;;7.20;99.90;;;;;;5057006;28;20198;-65
2020/12/16 08:51:48;;;;;;;5.57;4.32;;;7.30;99.90;;;;;;5057245;28;20186;-65
2020/12/16 08:54:22;;;;;;;11.10;6.27;;;7.40;99.90;;;;;;5056824;28;20188;-66
2020/12/16 08:56:57;;;;;;;7.68;5.75;;;7.40;99.60;;;;;;5056735;28;20454;-66
2020/12/16 08:59:27;;;;;;;8.25;5.30;;;7.30;99.60;;;;;;5056835;28;20205;-65
2020/12/16 09:02:07;;;;;;;32.92;17.80;;;7.40;99.90;;;;;;5056580;28;20187;-66
2020/12/16 09:04:41;;;;;;;13.52;8.70;;;7.30;99.90;;;;;;5056842;28;20604;-66
2020/12/16 09:07:07;;;;;;;3.92;3.63;;;7.40;99.90;;;;;;5056859;28;20227;-66
2020/12/16 09:09:35;;;;;;;6.18;4.15;;;7.60;99.90;;;;;;5056674;28;20234;-65
2020/12/16 09:12:02;;;;;;;9.25;5.40;;;7.90;99.70;;;;;;5056458;28;20194;-65
2020/12/16 09:14:28;;;;;;;4.78;4.38;;;8.10;99.40;;;;;;5056607;28;20628;-65
2020/12/16 09:16:54;;;;;;;5.63;4.45;;;8.30;99.10;;;;;;5056277;28;20197;-66
2020/12/16 09:19:24;;;;;;;11.00;4.30;;;8.40;99.00;;;;;;5056456;28;20241;-66
2020/12/16 09:21:59;;;;;;;3.90;3.42;;;8.50;98.90;;;;;;5056254;28;20843;-66
2020/12/16 09:24:25;;;;;;;5.75;1.92;;;8.70;98.70;;;;;;5056364;28;20600;-65
2020/12/16 09:26:52;;;;;;;2.38;1.25;;;8.90;98.50;;;;;;5056088;28;20536;-65
2020/12/16 09:29:17;;;;;;;2.50;2.30;;;9.10;98.40;;;;;;5056154;28;20178;-66
2020/12/16 09:31:43;;;;;;;1.67;1.57;;;9.30;97.80;;;;;;5055883;28;20246;-66
2020/12/16 09:34:09;;;;;;;1.83;1.73;;;9.40;97.30;;;;;;5055849;28;20169;-65
2020/12/16 09:36:34;;;;;;;3.90;1.33;;;9.70;97.30;;;;;;5056029;28;20200;-66
2020/12/16 09:39:04;;;;;;;1.53;1.40;;;10.00;96.50;;;;;;5055898;28;20197;-66
2020/12/16 09:41:42;;;;;;;1.70;1.60;;;10.20;95.80;;;;;;5056070;28;20195;-66
2020/12/16 09:44:25;;;;;;;1.90;1.73;;;9.90;96.20;;;;;;5056355;28;20180;-65
2020/12/16 09:46:50;;;;;;;18.38;14.10;;;9.90;96.50;;;;;;5055743;28;20190;-66
2020/12/16 09:49:21;;;;;;;4.87;4.30;;;10.00;95.90;;;;;;5056144;28;20227;-66
2020/12/16 09:51:47;;;;;;;2.72;2.53;;;10.10;95.70;;;;;;5055824;28;20225;-65
2020/12/16 09:54:32;;;;;;;12.55;9.65;;;10.20;95.40;;;;;;5055730;28;20185;-66
2020/12/16 09:57:08;;;;;;;10.38;6.30;;;10.10;94.90;;;;;;5055616;28;20169;-66
2020/12/16 09:59:34;;;;;;;5.60;5.10;;;10.10;95.20;;;;;;5055583;28;20185;-65
2020/12/16 10:02:00;;;;;;;5.60;2.95;;;9.90;96.10;;;;;;5055579;28;20191;-66
2020/12/16 10:04:25;;;;;;;6.73;3.70;;;9.70;96.50;;;;;;5055339;28;20170;-66
2020/12/16 10:06:52;;;;;;;9.27;8.37;;;9.90;96.80;;;;;;5055370;28;20403;-65
2020/12/16 10:09:18;;;;;;;5.30;4.80;;;9.90;96.40;;;;;;5054150;28;20655;-66
2020/12/16 10:11:48;;;;;;;6.30;5.83;;;10.30;96.70;;;;;;5055354;28;20202;-66
2020/12/16 10:14:17;;;;;;;4.80;4.40;;;11.30;95.80;;;;;;5055460;28;20409;-65
2020/12/16 10:16:47;;;;;;;2.28;2.17;;;12.70;94.80;;;;;;5055362;28;20177;-66
2020/12/16 10:19:16;;;;;;;3.40;3.10;;;14.80;91.30;;;;;;5055505;28;20197;-65
2020/12/16 10:21:42;;;;;;;4.00;3.70;;;16.40;82.60;;;;;;5055144;28;20428;-65
2020/12/16 10:24:08;;;;;;;3.53;3.23;;;16.60;78.90;;;;;;5055100;28;20488;-66
2020/12/16 10:26:33;;;;;;;3.80;3.50;;;16.20;79.00;;;;;;5055144;28;20403;-66
2020/12/16 10:28:59;;;;;;;3.87;3.60;;;15.70;79.60;;;;;;5055254;28;20167;-65
2020/12/16 10:31:24;;;;;;;4.70;2.93;;;15.10;81.20;;;;;;5054898;28;20693;-67
2020/12/16 10:33:50;;;;;;;30.97;20.90;;;14.60;84.10;;;;;;5055449;28;20198;-66
2020/12/16 10:36:16;;;;;;;6.57;5.37;;;14.10;85.40;;;;;;5054744;28;20176;-65
2020/12/16 10:38:41;;;;;;;3.07;2.67;;;13.30;88.10;;;;;;5054819;28;20287;-65
2020/12/16 10:41:07;;;;;;;5.07;4.07;;;13.10;89.50;;;;;;5054758;28;20178;-65
2020/12/16 10:43:33;;;;;;;31.07;20.80;;;13.10;90.00;;;;;;5054581;28;20196;-65
2020/12/16 10:45:58;;;;;;;9.43;5.50;;;13.40;90.60;;;;;;5053945;28;20197;-64
2020/12/16 10:48:24;;;;;;;2.57;2.33;;;13.90;89.60;;;;;;5054678;28;20170;-67
2020/12/16 10:50:50;;;;;;;4.10;3.73;;;14.40;86.80;;;;;;5054638;28;20271;-66
2020/12/16 10:53:16;;;;;;;5.23;4.83;;;14.70;85.80;;;;;;5054510;28;20176;-66
2020/12/16 10:55:42;;;;;;;2.83;2.57;;;14.90;85.30;;;;;;5054514;28;20466;-67
2020/12/16 10:58:07;;;;;;;2.87;2.57;;;15.10;85.10;;;;;;5054466;28;20193;-67
2020/12/16 11:00:33;;;;;;;4.97;3.00;;;15.00;84.50;;;;;;5053285;28;20616;-67
2020/12/16 11:02:58;;;;;;;2.50;2.27;;;14.80;84.80;;;;;;5054307;28;20170;-66
2020/12/16 11:05:24;;;;;;;5.37;4.17;;;14.80;85.80;;;;;;5053998;28;20169;-66
2020/12/16 11:07:50;;;;;;;7.97;4.60;;;14.40;86.40;;;;;;5054353;28;20198;-66
2020/12/16 11:10:15;;;;;;;3.73;2.43;;;14.20;87.30;;;;;;5054337;28;20215;-67
2020/12/16 11:12:41;;;;;;;11.93;5.60;;;14.10;87.40;;;;;;5054098;28;20277;-67
2020/12/16 11:15:06;;;;;;;1.43;1.23;;;14.00;87.20;;;;;;5054033;28;20175;-67
2020/12/16 11:17:32;;;;;;;3.33;2.53;;;13.90;87.70;;;;;;5054024;28;20568;-66
2020/12/16 11:19:58;;;;;;;8.83;5.50;;;13.60;88.40;;;;;;5054061;28;20208;-66
2020/12/16 11:22:23;;;;;;;3.77;3.37;;;13.10;89.60;;;;;;5052665;28;20300;-68
2020/12/16 11:24:50;;;;;;;4.07;3.67;;;12.30;91.10;;;;;;5054058;28;20170;-66
2020/12/16 11:27:15;;;;;;;3.55;3.17;;;12.30;92.10;;;;;;5054074;28;20159;-67
2020/12/16 11:29:48;;;;;;;3.73;2.77;;;12.20;91.60;;;;;;5054151;28;20531;-66
2020/12/16 11:32:14;;;;;;;3.17;2.50;;;12.30;92.10;;;;;;5054092;28;20222;-66
2020/12/16 11:34:40;;;;;;;1.93;1.70;;;12.40;92.20;;;;;;5053691;28;20212;-66
2020/12/16 11:37:05;;;;;;;2.43;2.20;;;12.60;92.00;;;;;;5053849;28;20404;-66
2020/12/16 11:39:31;;;;;;;3.10;1.80;;;12.80;91.60;;;;;;5053924;28;20254;-66
2020/12/16 11:41:57;;;;;;;0.87;0.87;;;13.00;91.60;;;;;;5053881;28;20206;-66
2020/12/16 11:44:25;;;;;;;0.77;0.77;;;13.00;91.70;;;;;;5053667;28;20170;-66
2020/12/16 11:46:51;;;;;;;63.97;51.70;;;12.70;91.90;;;;;;5053494;28;20560;-67
2020/12/16 11:49:18;;;;;;;14.40;9.73;;;12.60;92.00;;;;;;5053629;28;20177;-66
2020/12/16 11:51:44;;;;;;;93.45;60.75;;;12.30;91.80;;;;;;5053460;28;20204;-67
2020/12/16 11:54:09;;;;;;;11.20;8.40;;;11.60;92.80;;;;;;5053717;28;20564;-66
2020/12/16 11:56:36;;;;;;;79.77;47.53;;;11.10;93.80;;;;;;5053120;28;20166;-67
2020/12/16 11:59:03;;;;;;;418.52;270.48;;;10.90;94.00;;;;;;5053353;28;20197;-66
2020/12/16 12:01:29;;;;;;;101.25;58.35;;;10.80;94.30;;;;;;5053393;28;20215;-67
2020/12/16 12:03:54;;;;;;;473.00;307.07;;;10.80;95.10;;;;;;5053294;28;20530;-66
2020/12/16 12:06:20;;;;;;;23.80;21.40;;;10.70;95.50;;;;;;5053295;28;20241;-67
2020/12/16 12:08:46;;;;;;;4.07;3.10;;;10.70;96.10;;;;;;5053484;28;20182;-67
2020/12/16 12:11:17;;;;;;;1.83;1.43;;;10.60;95.90;;;;;;5053243;28;20558;-66
2020/12/16 12:13:44;;;;;;;1.70;1.60;;;10.90;96.10;;;;;;5053449;28;20412;-67
2020/12/16 12:16:10;;;;;;;12.63;11.73;;;11.10;95.30;;;;;;5049579;28;20182;-68
2020/12/16 12:18:39;;;;;;;97.50;74.32;;;10.90;95.60;;;;;;5052086;28;20284;-65
2020/12/16 12:21:08;;;;;;;111.63;99.60;;;10.90;95.70;;;;;;5053203;28;20194;-67
2020/12/16 12:23:34;;;;;;;26.70;24.00;;;10.90;95.80;;;;;;5052899;28;20281;-67
2020/12/16 12:26:01;;;;;;;7.97;7.20;;;10.90;95.70;;;;;;5051796;28;20174;-67
2020/12/16 12:28:27;;;;;;;4.60;4.20;;;11.00;95.40;;;;;;5053309;28;20205;-67
2020/12/16 12:30:53;;;;;;;44.10;29.63;;;11.10;95.50;;;;;;5053300;28;20186;-67
2020/12/16 12:33:18;;;;;;;33.20;16.50;;;11.10;95.80;;;;;;5053457;28;20236;-66
2020/12/16 12:35:44;;;;;;;2.00;1.50;;;11.30;95.80;;;;;;5053079;28;20580;-66
2020/12/16 12:38:10;;;;;;;2.30;1.93;;;11.50;95.40;;;;;;5053284;28;20558;-67
2020/12/16 12:40:35;;;;;;;11.60;10.53;;;11.60;95.40;;;;;;5053551;28;20167;-67
2020/12/16 12:43:01;;;;;;;13.17;11.80;;;11.70;95.20;;;;;;5053372;28;20404;-67
2020/12/16 12:45:27;;;;;;;2.20;1.00;;;11.70;94.90;;;;;;5053043;28;20170;-67
2020/12/16 12:47:52;;;;;;;4.07;3.13;;;11.40;95.20;;;;;;5053370;28;20258;-67
2020/12/16 12:50:18;;;;;;;47.97;29.73;;;11.50;95.20;;;;;;5053448;28;20177;-67
2020/12/16 12:52:44;;;;;;;5.70;3.07;;;11.10;95.50;;;;;;5053342;28;20197;-66
2020/12/16 12:55:10;;;;;;;5.93;2.92;;;11.20;95.70;;;;;;5053017;28;20174;-66
2020/12/16 12:57:40;;;;;;;71.90;45.58;;;11.40;95.10;;;;;;5052881;28;20666;-67